sensor_id;sensor_type;location;lat;lon;timestamp;temperature;humidity
30037;DHT22;36325;51.512;-0.382;2023-11-19T00:01:54;12.50;99.90
30037;DHT22;36325;51.512;-0.382;2023-11-19T00:04:22;12.50;99.90
30037;DHT22;36325;51.512;-0.382;2023-11-19T00:06:54;12.50;99.90
30037;DHT22;36325;51.512;-0.382;2023-11-19T00:09:21;12.40;99.90
30037;DHT22;36325;51.512;-0.382;2023-11-19T00:11:50;12.40;99.90
30037;DHT22;36325;51.512;-0.382;2023-11-19T00:14:21;12.40;99.90
30037;DHT22;36325;51.512;-0.382;2023-11-19T00:16:50;11.90;99.90
30037;DHT22;36325;51.512;-0.382;2023-11-19T00:19:18;12.30;99.90
30037;DHT22;36325;51.512;-0.382;2023-11-19T00:21:45;12.40;99.90
30037;DHT22;36325;51.512;-0.382;2023-11-19T00:24:14;12.40;99.90
30037;DHT22;36325;51.512;-0.382;2023-11-19T00:26:47;12.30;99.90
30037;DHT22;36325;51.512;-0.382;2023-11-19T00:29:17;12.30;99.90
30037;DHT22;36325;51.512;-0.382;2023-11-19T00:31:47;12.30;99.90
30037;DHT22;36325;51.512;-0.382;2023-11-19T00:34:17;12.30;99.90
30037;DHT22;36325;51.512;-0.382;2023-11-19T00:36:51;12.20;99.90
30037;DHT22;36325;51.512;-0.382;2023-11-19T00:39:20;12.20;99.90
30037;DHT22;36325;51.512;-0.382;2023-11-19T00:41:48;12.20;99.90
30037;DHT22;36325;51.512;-0.382;2023-11-19T00:44:17;12.20;99.90
30037;DHT22;36325;51.512;-0.382;2023-11-19T00:46:46;12.20;99.90
30037;DHT22;36325;51.512;-0.382;2023-11-19T00:49:14;12.20;99.90
30037;DHT22;36325;51.512;-0.382;2023-11-19T00:51:44;12.20;99.90
30037;DHT22;36325;51.512;-0.382;2023-11-19T00:54:13;12.20;99.90
30037;DHT22;36325;51.512;-0.382;2023-11-19T00:56:44;12.30;99.90
30037;DHT22;36325;51.512;-0.382;2023-11-19T00:59:13;12.10;99.90
30037;DHT22;36325;51.512;-0.382;2023-11-19T01:01:41;12.10;99.90
30037;DHT22;36325;51.512;-0.382;2023-11-19T01:04:08;12.10;99.90
30037;DHT22;36325;51.512;-0.382;2023-11-19T01:06:37;12.10;99.90
30037;DHT22;36325;51.512;-0.382;2023-11-19T01:09:15;12.10;99.90
30037;DHT22;36325;51.512;-0.382;2023-11-19T01:11:48;12.10;99.90
30037;DHT22;36325;51.512;-0.382;2023-11-19T01:14:15;12.20;99.90
30037;DHT22;36325;51.512;-0.382;2023-11-19T01:16:48;12.20;99.90
30037;DHT22;36325;51.512;-0.382;2023-11-19T01:19:18;12.20;99.90
30037;DHT22;36325;51.512;-0.382;2023-11-19T01:21:47;12.20;99.90
30037;DHT22;36325;51.512;-0.382;2023-11-19T01:24:17;12.20;99.90
30037;DHT22;36325;51.512;-0.382;2023-11-19T01:26:45;12.20;99.90
30037;DHT22;36325;51.512;-0.382;2023-11-19T01:29:15;12.10;99.90
30037;DHT22;36325;51.512;-0.382;2023-11-19T01:31:46;12.10;99.90
30037;DHT22;36325;51.512;-0.382;2023-11-19T01:34:19;12.10;99.90
30037;DHT22;36325;51.512;-0.382;2023-11-19T01:36:49;12.10;99.90
30037;DHT22;36325;51.512;-0.382;2023-11-19T01:39:17;12.10;99.90
30037;DHT22;36325;51.512;-0.382;2023-11-19T01:41:51;12.10;99.90
30037;DHT22;36325;51.512;-0.382;2023-11-19T01:44:19;12.10;99.90
30037;DHT22;36325;51.512;-0.382;2023-11-19T01:46:46;12.00;99.90
30037;DHT22;36325;51.512;-0.382;2023-11-19T01:49:18;12.00;99.90
30037;DHT22;36325;51.512;-0.382;2023-11-19T01:51:46;12.00;99.90
30037;DHT22;36325;51.512;-0.382;2023-11-19T01:54:15;12.00;99.90
30037;DHT22;36325;51.512;-0.382;2023-11-19T01:56:42;12.00;99.90
30037;DHT22;36325;51.512;-0.382;2023-11-19T01:59:10;12.00;99.90
30037;DHT22;36325;51.512;-0.382;2023-11-19T02:01:40;12.00;99.90
30037;DHT22;36325;51.512;-0.382;2023-11-19T02:04:08;12.00;99.90
30037;DHT22;36325;51.512;-0.382;2023-11-19T02:06:42;12.00;99.90
30037;DHT22;36325;51.512;-0.382;2023-11-19T02:09:10;12.00;99.90
30037;DHT22;36325;51.512;-0.382;2023-11-19T02:11:44;11.90;99.90
30037;DHT22;36325;51.512;-0.382;2023-11-19T02:14:12;11.90;99.90
30037;DHT22;36325;51.512;-0.382;2023-11-19T02:16:39;12.00;99.90
30037;DHT22;36325;51.512;-0.382;2023-11-19T02:19:07;12.00;99.90
30037;DHT22;36325;51.512;-0.382;2023-11-19T02:21:37;12.00;99.90
30037;DHT22;36325;51.512;-0.382;2023-11-19T02:24:09;12.00;99.90
30037;DHT22;36325;51.512;-0.382;2023-11-19T02:26:52;12.00;99.90
30037;DHT22;36325;51.512;-0.382;2023-11-19T02:29:27;12.00;99.90
30037;DHT22;36325;51.512;-0.382;2023-11-19T02:31:54;12.00;99.90
30037;DHT22;36325;51.512;-0.382;2023-11-19T02:34:25;12.00;99.90
30037;DHT22;36325;51.512;-0.382;2023-11-19T02:36:57;12.10;99.90
30037;DHT22;36325;51.512;-0.382;2023-11-19T02:39:25;12.10;99.90
30037;DHT22;36325;51.512;-0.382;2023-11-19T02:41:58;12.00;99.90
30037;DHT22;36325;51.512;-0.382;2023-11-19T02:44:25;12.10;99.90
30037;DHT22;36325;51.512;-0.382;2023-11-19T02:46:55;12.00;99.90
30037;DHT22;36325;51.512;-0.382;2023-11-19T02:49:24;12.00;99.90
30037;DHT22;36325;51.512;-0.382;2023-11-19T02:51:54;12.00;99.90
30037;DHT22;36325;51.512;-0.382;2023-11-19T02:54:22;12.00;99.90
30037;DHT22;36325;51.512;-0.382;2023-11-19T02:56:55;12.00;99.90
30037;DHT22;36325;51.512;-0.382;2023-11-19T02:59:27;12.00;99.90
30037;DHT22;36325;51.512;-0.382;2023-11-19T03:01:59;11.90;99.90
30037;DHT22;36325;51.512;-0.382;2023-11-19T03:04:29;11.90;99.90
30037;DHT22;36325;51.512;-0.382;2023-11-19T03:06:58;11.90;99.90
30037;DHT22;36325;51.512;-0.382;2023-11-19T03:09:27;11.90;99.90
30037;DHT22;36325;51.512;-0.382;2023-11-19T03:11:59;11.90;99.90
30037;DHT22;36325;51.512;-0.382;2023-11-19T03:14:26;11.90;99.90
30037;DHT22;36325;51.512;-0.382;2023-11-19T03:16:55;11.80;99.90
30037;DHT22;36325;51.512;-0.382;2023-11-19T03:19:23;11.80;99.90
30037;DHT22;36325;51.512;-0.382;2023-11-19T03:21:52;11.90;99.90
30037;DHT22;36325;51.512;-0.382;2023-11-19T03:24:24;12.00;99.90
30037;DHT22;36325;51.512;-0.382;2023-11-19T03:26:54;12.00;99.90
30037;DHT22;36325;51.512;-0.382;2023-11-19T03:32:15;12.00;99.90
30037;DHT22;36325;51.512;-0.382;2023-11-19T03:34:44;12.00;99.90
30037;DHT22;36325;51.512;-0.382;2023-11-19T03:37:14;12.00;99.90
30037;DHT22;36325;51.512;-0.382;2023-11-19T03:39:45;12.00;99.90
30037;DHT22;36325;51.512;-0.382;2023-11-19T03:42:19;12.00;99.90
30037;DHT22;36325;51.512;-0.382;2023-11-19T03:44:47;12.10;99.90
30037;DHT22;36325;51.512;-0.382;2023-11-19T03:47:17;12.10;99.90
30037;DHT22;36325;51.512;-0.382;2023-11-19T03:49:51;12.10;99.90
30037;DHT22;36325;51.512;-0.382;2023-11-19T03:52:18;12.20;99.90
30037;DHT22;36325;51.512;-0.382;2023-11-19T03:54:47;12.10;99.90
30037;DHT22;36325;51.512;-0.382;2023-11-19T03:57:15;12.00;99.90
30037;DHT22;36325;51.512;-0.382;2023-11-19T03:59:45;12.00;99.90
30037;DHT22;36325;51.512;-0.382;2023-11-19T04:02:12;12.00;99.90
30037;DHT22;36325;51.512;-0.382;2023-11-19T04:04:41;12.00;99.90
30037;DHT22;36325;51.512;-0.382;2023-11-19T04:07:10;12.00;99.90
30037;DHT22;36325;51.512;-0.382;2023-11-19T04:09:39;11.90;99.90
30037;DHT22;36325;51.512;-0.382;2023-11-19T04:12:06;12.10;99.90
30037;DHT22;36325;51.512;-0.382;2023-11-19T04:14:36;11.90;99.90
30037;DHT22;36325;51.512;-0.382;2023-11-19T04:17:05;11.90;99.90
30037;DHT22;36325;51.512;-0.382;2023-11-19T04:19:32;11.90;99.90
30037;DHT22;36325;51.512;-0.382;2023-11-19T04:22:03;11.90;99.90
30037;DHT22;36325;51.512;-0.382;2023-11-19T04:24:32;12.00;99.90
30037;DHT22;36325;51.512;-0.382;2023-11-19T04:27:05;11.90;99.90
30037;DHT22;36325;51.512;-0.382;2023-11-19T04:29:35;11.90;99.90
30037;DHT22;36325;51.512;-0.382;2023-11-19T04:32:03;11.90;99.90
30037;DHT22;36325;51.512;-0.382;2023-11-19T04:34:38;11.90;99.90
30037;DHT22;36325;51.512;-0.382;2023-11-19T04:37:06;11.90;99.90
30037;DHT22;36325;51.512;-0.382;2023-11-19T04:39:36;11.90;99.90
30037;DHT22;36325;51.512;-0.382;2023-11-19T04:42:06;11.90;99.90
30037;DHT22;36325;51.512;-0.382;2023-11-19T04:44:34;12.00;99.90
30037;DHT22;36325;51.512;-0.382;2023-11-19T04:47:01;12.00;99.90
30037;DHT22;36325;51.512;-0.382;2023-11-19T04:49:30;11.90;99.90
30037;DHT22;36325;51.512;-0.382;2023-11-19T04:52:02;11.90;99.90
30037;DHT22;36325;51.512;-0.382;2023-11-19T04:54:30;11.90;99.90
30037;DHT22;36325;51.512;-0.382;2023-11-19T04:56:59;11.90;99.90
30037;DHT22;36325;51.512;-0.382;2023-11-19T04:59:30;11.90;99.90
30037;DHT22;36325;51.512;-0.382;2023-11-19T05:01:57;12.00;99.90
30037;DHT22;36325;51.512;-0.382;2023-11-19T05:04:26;11.90;99.90
30037;DHT22;36325;51.512;-0.382;2023-11-19T05:06:54;12.90;99.90
30037;DHT22;36325;51.512;-0.382;2023-11-19T05:09:24;12.00;99.90
30037;DHT22;36325;51.512;-0.382;2023-11-19T05:11:51;12.00;99.90
30037;DHT22;36325;51.512;-0.382;2023-11-19T05:14:21;11.90;99.90
30037;DHT22;36325;51.512;-0.382;2023-11-19T05:16:49;11.90;99.90
30037;DHT22;36325;51.512;-0.382;2023-11-19T05:19:17;11.90;99.90
30037;DHT22;36325;51.512;-0.382;2023-11-19T05:21:49;11.90;99.90
30037;DHT22;36325;51.512;-0.382;2023-11-19T05:24:20;11.80;99.90
30037;DHT22;36325;51.512;-0.382;2023-11-19T05:26:47;11.90;99.90
30037;DHT22;36325;51.512;-0.382;2023-11-19T05:29:15;11.90;99.90
30037;DHT22;36325;51.512;-0.382;2023-11-19T05:31:42;11.90;99.90
30037;DHT22;36325;51.512;-0.382;2023-11-19T05:34:11;11.90;99.90
30037;DHT22;36325;51.512;-0.382;2023-11-19T05:39:10;12.10;99.90
30037;DHT22;36325;51.512;-0.382;2023-11-19T05:41:39;12.10;99.90
30037;DHT22;36325;51.512;-0.382;2023-11-19T05:44:06;12.20;99.90
30037;DHT22;36325;51.512;-0.382;2023-11-19T05:46:35;12.20;99.90
30037;DHT22;36325;51.512;-0.382;2023-11-19T05:49:08;12.30;99.90
30037;DHT22;36325;51.512;-0.382;2023-11-19T05:51:36;12.20;99.90
30037;DHT22;36325;51.512;-0.382;2023-11-19T05:54:08;12.30;99.90
30037;DHT22;36325;51.512;-0.382;2023-11-19T05:56:40;12.30;99.90
30037;DHT22;36325;51.512;-0.382;2023-11-19T05:59:09;12.40;99.90
30037;DHT22;36325;51.512;-0.382;2023-11-19T06:01:47;12.40;99.90
30037;DHT22;36325;51.512;-0.382;2023-11-19T06:04:18;12.50;99.90
30037;DHT22;36325;51.512;-0.382;2023-11-19T06:06:49;12.50;99.90
30037;DHT22;36325;51.512;-0.382;2023-11-19T06:09:16;12.70;99.90
30037;DHT22;36325;51.512;-0.382;2023-11-19T06:11:51;12.50;99.90
30037;DHT22;36325;51.512;-0.382;2023-11-19T06:14:21;12.50;99.90
30037;DHT22;36325;51.512;-0.382;2023-11-19T06:16:49;12.50;99.90
30037;DHT22;36325;51.512;-0.382;2023-11-19T06:19:17;12.40;99.90
30037;DHT22;36325;51.512;-0.382;2023-11-19T06:21:46;12.40;99.90
30037;DHT22;36325;51.512;-0.382;2023-11-19T06:24:14;12.40;99.90
30037;DHT22;36325;51.512;-0.382;2023-11-19T06:26:41;12.30;99.90
30037;DHT22;36325;51.512;-0.382;2023-11-19T06:29:10;12.30;99.90
30037;DHT22;36325;51.512;-0.382;2023-11-19T06:31:43;12.30;99.90
30037;DHT22;36325;51.512;-0.382;2023-11-19T06:34:12;12.20;99.90
30037;DHT22;36325;51.512;-0.382;2023-11-19T06:36:41;12.10;99.90
30037;DHT22;36325;51.512;-0.382;2023-11-19T06:39:12;12.10;99.90
30037;DHT22;36325;51.512;-0.382;2023-11-19T06:41:40;12.10;99.90
30037;DHT22;36325;51.512;-0.382;2023-11-19T06:44:11;12.10;99.90
30037;DHT22;36325;51.512;-0.382;2023-11-19T06:46:40;12.10;99.90
30037;DHT22;36325;51.512;-0.382;2023-11-19T06:49:07;12.00;99.90
30037;DHT22;36325;51.512;-0.382;2023-11-19T06:51:35;12.10;99.90
30037;DHT22;36325;51.512;-0.382;2023-11-19T06:54:04;12.00;99.90
30037;DHT22;36325;51.512;-0.382;2023-11-19T06:56:44;12.00;99.90
30037;DHT22;36325;51.512;-0.382;2023-11-19T06:59:15;13.50;99.90
30037;DHT22;36325;51.512;-0.382;2023-11-19T07:01:46;11.90;99.90
30037;DHT22;36325;51.512;-0.382;2023-11-19T07:04:13;11.90;99.90
30037;DHT22;36325;51.512;-0.382;2023-11-19T07:06:41;11.00;99.90
30037;DHT22;36325;51.512;-0.382;2023-11-19T07:09:09;11.90;99.90
30037;DHT22;36325;51.512;-0.382;2023-11-19T07:11:41;11.90;99.90
30037;DHT22;36325;51.512;-0.382;2023-11-19T07:14:12;11.90;99.90
30037;DHT22;36325;51.512;-0.382;2023-11-19T07:16:46;11.80;99.90
30037;DHT22;36325;51.512;-0.382;2023-11-19T07:19:14;11.80;99.90
30037;DHT22;36325;51.512;-0.382;2023-11-19T07:21:43;11.80;99.90
30037;DHT22;36325;51.512;-0.382;2023-11-19T07:24:18;11.80;99.90
30037;DHT22;36325;51.512;-0.382;2023-11-19T07:26:48;10.70;99.90
30037;DHT22;36325;51.512;-0.382;2023-11-19T07:29:20;11.70;99.90
30037;DHT22;36325;51.512;-0.382;2023-11-19T07:31:52;11.70;99.90
30037;DHT22;36325;51.512;-0.382;2023-11-19T07:34:19;11.80;99.90
30037;DHT22;36325;51.512;-0.382;2023-11-19T07:36:50;11.70;99.90
30037;DHT22;36325;51.512;-0.382;2023-11-19T07:39:19;11.80;99.90
30037;DHT22;36325;51.512;-0.382;2023-11-19T07:41:50;11.80;99.90
30037;DHT22;36325;51.512;-0.382;2023-11-19T07:44:20;11.90;99.90
30037;DHT22;36325;51.512;-0.382;2023-11-19T07:46:49;11.80;99.90
30037;DHT22;36325;51.512;-0.382;2023-11-19T07:49:17;11.80;99.90
30037;DHT22;36325;51.512;-0.382;2023-11-19T07:51:47;11.90;99.90
30037;DHT22;36325;51.512;-0.382;2023-11-19T07:54:18;11.90;99.90
30037;DHT22;36325;51.512;-0.382;2023-11-19T08:02:42;12.00;99.90
30037;DHT22;36325;51.512;-0.382;2023-11-19T08:05:10;12.10;99.90
30037;DHT22;36325;51.512;-0.382;2023-11-19T08:07:41;12.10;99.90
30037;DHT22;36325;51.512;-0.382;2023-11-19T08:10:11;12.10;99.90
30037;DHT22;36325;51.512;-0.382;2023-11-19T08:12:39;12.10;99.90
30037;DHT22;36325;51.512;-0.382;2023-11-19T08:15:08;12.10;99.90
30037;DHT22;36325;51.512;-0.382;2023-11-19T08:17:37;12.10;99.90
30037;DHT22;36325;51.512;-0.382;2023-11-19T08:20:13;12.10;99.90
30037;DHT22;36325;51.512;-0.382;2023-11-19T08:22:42;12.10;99.90
30037;DHT22;36325;51.512;-0.382;2023-11-19T08:25:09;12.00;99.90
30037;DHT22;36325;51.512;-0.382;2023-11-19T08:27:37;12.20;99.90
30037;DHT22;36325;51.512;-0.382;2023-11-19T08:30:07;12.30;99.90
30037;DHT22;36325;51.512;-0.382;2023-11-19T08:32:38;12.30;99.90
30037;DHT22;36325;51.512;-0.382;2023-11-19T08:35:09;12.30;99.90
30037;DHT22;36325;51.512;-0.382;2023-11-19T08:37:37;12.40;99.90
30037;DHT22;36325;51.512;-0.382;2023-11-19T08:40:07;12.50;99.90
30037;DHT22;36325;51.512;-0.382;2023-11-19T08:42:44;12.60;99.90
30037;DHT22;36325;51.512;-0.382;2023-11-19T08:45:13;12.70;99.90
30037;DHT22;36325;51.512;-0.382;2023-11-19T08:47:41;12.70;99.90
30037;DHT22;36325;51.512;-0.382;2023-11-19T08:50:10;12.80;99.90
30037;DHT22;36325;51.512;-0.382;2023-11-19T08:52:37;12.80;99.90
30037;DHT22;36325;51.512;-0.382;2023-11-19T08:55:11;12.80;99.90
30037;DHT22;36325;51.512;-0.382;2023-11-19T09:00:13;12.90;99.90
30037;DHT22;36325;51.512;-0.382;2023-11-19T09:02:45;12.90;99.90
30037;DHT22;36325;51.512;-0.382;2023-11-19T09:05:12;12.90;99.90
30037;DHT22;36325;51.512;-0.382;2023-11-19T09:07:41;12.80;99.90
30037;DHT22;36325;51.512;-0.382;2023-11-19T09:10:10;12.90;99.90
30037;DHT22;36325;51.512;-0.382;2023-11-19T09:12:55;12.90;99.90
30037;DHT22;36325;51.512;-0.382;2023-11-19T09:15:24;13.00;99.90
30037;DHT22;36325;51.512;-0.382;2023-11-19T09:18:05;13.10;99.90
30037;DHT22;36325;51.512;-0.382;2023-11-19T09:20:41;13.00;99.90
30037;DHT22;36325;51.512;-0.382;2023-11-19T09:26:10;13.10;99.90
30037;DHT22;36325;51.512;-0.382;2023-11-19T09:28:40;13.20;99.90
30037;DHT22;36325;51.512;-0.382;2023-11-19T09:31:16;13.10;99.90
30037;DHT22;36325;51.512;-0.382;2023-11-19T09:33:44;13.20;99.90
30037;DHT22;36325;51.512;-0.382;2023-11-19T09:39:07;13.40;99.90
30037;DHT22;36325;51.512;-0.382;2023-11-19T09:41:35;13.50;99.90
30037;DHT22;36325;51.512;-0.382;2023-11-19T09:44:03;13.50;99.90
30037;DHT22;36325;51.512;-0.382;2023-11-19T09:46:35;13.40;99.90
30037;DHT22;36325;51.512;-0.382;2023-11-19T09:49:05;13.40;99.90
30037;DHT22;36325;51.512;-0.382;2023-11-19T09:51:35;13.30;99.90
30037;DHT22;36325;51.512;-0.382;2023-11-19T09:54:08;13.30;99.90
30037;DHT22;36325;51.512;-0.382;2023-11-19T09:56:44;13.30;99.90
30037;DHT22;36325;51.512;-0.382;2023-11-19T09:59:14;13.30;99.90
30037;DHT22;36325;51.512;-0.382;2023-11-19T10:01:43;13.30;99.90
30037;DHT22;36325;51.512;-0.382;2023-11-19T10:04:14;13.40;99.90
30037;DHT22;36325;51.512;-0.382;2023-11-19T10:06:44;13.50;99.90
30037;DHT22;36325;51.512;-0.382;2023-11-19T10:09:18;13.70;99.90
30037;DHT22;36325;51.512;-0.382;2023-11-19T10:11:47;13.90;99.90
30037;DHT22;36325;51.512;-0.382;2023-11-19T10:14:19;13.90;99.90
30037;DHT22;36325;51.512;-0.382;2023-11-19T10:16:49;13.90;99.90
30037;DHT22;36325;51.512;-0.382;2023-11-19T10:19:21;14.00;99.90
30037;DHT22;36325;51.512;-0.382;2023-11-19T10:21:48;14.20;99.90
30037;DHT22;36325;51.512;-0.382;2023-11-19T10:24:21;14.20;99.90
30037;DHT22;36325;51.512;-0.382;2023-11-19T10:27:01;14.40;99.90
30037;DHT22;36325;51.512;-0.382;2023-11-19T10:29:30;14.50;99.90
30037;DHT22;36325;51.512;-0.382;2023-11-19T10:32:02;14.50;99.90
30037;DHT22;36325;51.512;-0.382;2023-11-19T10:35:04;14.40;99.90
30037;DHT22;36325;51.512;-0.382;2023-11-19T10:37:34;14.30;99.90
30037;DHT22;36325;51.512;-0.382;2023-11-19T10:40:07;14.40;99.90
30037;DHT22;36325;51.512;-0.382;2023-11-19T10:42:38;14.30;99.90
30037;DHT22;36325;51.512;-0.382;2023-11-19T10:45:15;14.40;99.90
30037;DHT22;36325;51.512;-0.382;2023-11-19T10:47:53;14.30;99.90
30037;DHT22;36325;51.512;-0.382;2023-11-19T10:50:26;14.30;99.90
30037;DHT22;36325;51.512;-0.382;2023-11-19T10:53:09;14.40;99.90
30037;DHT22;36325;51.512;-0.382;2023-11-19T10:55:39;14.50;99.90
30037;DHT22;36325;51.512;-0.382;2023-11-19T10:58:08;14.50;99.90
30037;DHT22;36325;51.512;-0.382;2023-11-19T11:00:45;14.50;99.90
30037;DHT22;36325;51.512;-0.382;2023-11-19T11:03:18;14.50;99.90
30037;DHT22;36325;51.512;-0.382;2023-11-19T11:05:49;14.50;99.90
30037;DHT22;36325;51.512;-0.382;2023-11-19T11:17:00;14.60;99.90
30037;DHT22;36325;51.512;-0.382;2023-11-19T11:19:34;14.70;99.90
30037;DHT22;36325;51.512;-0.382;2023-11-19T11:22:03;14.70;99.90
30037;DHT22;36325;51.512;-0.382;2023-11-19T11:24:39;14.80;99.90
30037;DHT22;36325;51.512;-0.382;2023-11-19T11:30:18;14.90;99.90
30037;DHT22;36325;51.512;-0.382;2023-11-19T11:33:04;14.70;99.90
30037;DHT22;36325;51.512;-0.382;2023-11-19T11:35:41;14.70;99.90
30037;DHT22;36325;51.512;-0.382;2023-11-19T11:38:14;14.90;99.90
30037;DHT22;36325;51.512;-0.382;2023-11-19T11:41:00;14.90;99.90
30037;DHT22;36325;51.512;-0.382;2023-11-19T11:43:50;14.60;99.90
30037;DHT22;36325;51.512;-0.382;2023-11-19T11:49:04;14.50;99.90
30037;DHT22;36325;51.512;-0.382;2023-11-19T11:54:37;14.50;99.90
30037;DHT22;36325;51.512;-0.382;2023-11-19T11:57:15;14.40;99.90
30037;DHT22;36325;51.512;-0.382;2023-11-19T11:59:49;14.50;99.90
30037;DHT22;36325;51.512;-0.382;2023-11-19T12:02:30;14.60;99.90
30037;DHT22;36325;51.512;-0.382;2023-11-19T12:05:01;14.60;99.90
30037;DHT22;36325;51.512;-0.382;2023-11-19T12:07:33;14.70;99.90
30037;DHT22;36325;51.512;-0.382;2023-11-19T12:10:07;14.80;99.90
30037;DHT22;36325;51.512;-0.382;2023-11-19T12:12:35;15.00;99.90
30037;DHT22;36325;51.512;-0.382;2023-11-19T12:18:01;14.90;99.90
30037;DHT22;36325;51.512;-0.382;2023-11-19T12:20:28;14.80;99.90
30037;DHT22;36325;51.512;-0.382;2023-11-19T12:23:05;14.70;99.90
30037;DHT22;36325;51.512;-0.382;2023-11-19T12:25:35;14.60;99.90
30037;DHT22;36325;51.512;-0.382;2023-11-19T12:28:04;14.60;99.90
30037;DHT22;36325;51.512;-0.382;2023-11-19T12:30:31;14.60;99.90
30037;DHT22;36325;51.512;-0.382;2023-11-19T12:32:59;14.50;99.90
30037;DHT22;36325;51.512;-0.382;2023-11-19T12:35:39;14.50;99.90
30037;DHT22;36325;51.512;-0.382;2023-11-19T12:38:07;14.50;99.90
30037;DHT22;36325;51.512;-0.382;2023-11-19T12:40:35;14.50;99.90
30037;DHT22;36325;51.512;-0.382;2023-11-19T12:43:03;14.60;99.90
30037;DHT22;36325;51.512;-0.382;2023-11-19T12:45:41;14.80;99.90
30037;DHT22;36325;51.512;-0.382;2023-11-19T12:48:08;14.80;99.90
30037;DHT22;36325;51.512;-0.382;2023-11-19T12:50:51;14.90;99.90
30037;DHT22;36325;51.512;-0.382;2023-11-19T12:53:28;15.00;99.90
30037;DHT22;36325;51.512;-0.382;2023-11-19T12:55:59;15.00;99.90
30037;DHT22;36325;51.512;-0.382;2023-11-19T12:58:37;15.00;99.90
30037;DHT22;36325;51.512;-0.382;2023-11-19T13:01:07;14.90;99.90
30037;DHT22;36325;51.512;-0.382;2023-11-19T13:03:37;14.80;99.90
30037;DHT22;36325;51.512;-0.382;2023-11-19T13:06:08;14.80;99.90
30037;DHT22;36325;51.512;-0.382;2023-11-19T13:11:05;14.60;99.90
30037;DHT22;36325;51.512;-0.382;2023-11-19T13:13:55;14.60;99.90
30037;DHT22;36325;51.512;-0.382;2023-11-19T13:16:21;14.50;99.90
30037;DHT22;36325;51.512;-0.382;2023-11-19T13:18:54;14.50;99.90
30037;DHT22;36325;51.512;-0.382;2023-11-19T13:21:23;14.50;99.90
30037;DHT22;36325;51.512;-0.382;2023-11-19T13:23:52;14.50;99.90
30037;DHT22;36325;51.512;-0.382;2023-11-19T13:26:22;14.60;99.90
30037;DHT22;36325;51.512;-0.382;2023-11-19T13:28:50;14.50;99.90
30037;DHT22;36325;51.512;-0.382;2023-11-19T13:31:26;14.50;99.90
30037;DHT22;36325;51.512;-0.382;2023-11-19T13:33:58;14.50;99.90
30037;DHT22;36325;51.512;-0.382;2023-11-19T13:36:29;14.50;99.90
30037;DHT22;36325;51.512;-0.382;2023-11-19T13:38:58;14.60;99.90
30037;DHT22;36325;51.512;-0.382;2023-11-19T13:44:30;14.50;99.90
30037;DHT22;36325;51.512;-0.382;2023-11-19T13:47:03;14.60;99.90
30037;DHT22;36325;51.512;-0.382;2023-11-19T13:49:36;14.60;99.90
30037;DHT22;36325;51.512;-0.382;2023-11-19T13:55:01;14.30;99.90
30037;DHT22;36325;51.512;-0.382;2023-11-19T13:57:46;14.60;99.90
30037;DHT22;36325;51.512;-0.382;2023-11-19T14:00:16;14.70;99.90
30037;DHT22;36325;51.512;-0.382;2023-11-19T14:02:44;14.70;99.90
30037;DHT22;36325;51.512;-0.382;2023-11-19T14:05:14;14.70;99.90
30037;DHT22;36325;51.512;-0.382;2023-11-19T14:07:52;14.70;99.90
30037;DHT22;36325;51.512;-0.382;2023-11-19T14:10:26;14.70;99.90
30037;DHT22;36325;51.512;-0.382;2023-11-19T14:12:59;14.70;99.90
30037;DHT22;36325;51.512;-0.382;2023-11-19T14:15:30;14.70;99.90
30037;DHT22;36325;51.512;-0.382;2023-11-19T14:18:02;14.70;99.90
30037;DHT22;36325;51.512;-0.382;2023-11-19T14:20:32;14.60;99.90
30037;DHT22;36325;51.512;-0.382;2023-11-19T14:23:03;14.60;99.90
30037;DHT22;36325;51.512;-0.382;2023-11-19T14:25:32;14.60;99.90
30037;DHT22;36325;51.512;-0.382;2023-11-19T14:27:59;14.60;99.90
30037;DHT22;36325;51.512;-0.382;2023-11-19T14:30:31;14.70;99.90
30037;DHT22;36325;51.512;-0.382;2023-11-19T14:32:58;14.70;99.90
30037;DHT22;36325;51.512;-0.382;2023-11-19T14:35:26;14.80;99.90
30037;DHT22;36325;51.512;-0.382;2023-11-19T14:37:55;14.70;99.90
30037;DHT22;36325;51.512;-0.382;2023-11-19T14:42:58;14.70;99.90
30037;DHT22;36325;51.512;-0.382;2023-11-19T14:45:26;14.70;99.90
30037;DHT22;36325;51.512;-0.382;2023-11-19T14:47:55;14.60;99.90
30037;DHT22;36325;51.512;-0.382;2023-11-19T14:50:25;14.50;99.90
30037;DHT22;36325;51.512;-0.382;2023-11-19T14:52:55;14.60;99.90
30037;DHT22;36325;51.512;-0.382;2023-11-19T14:55:25;14.60;99.90
30037;DHT22;36325;51.512;-0.382;2023-11-19T14:57:55;14.50;99.90
30037;DHT22;36325;51.512;-0.382;2023-11-19T15:00:32;14.50;99.90
30037;DHT22;36325;51.512;-0.382;2023-11-19T15:03:01;14.30;99.90
30037;DHT22;36325;51.512;-0.382;2023-11-19T15:05:31;14.40;99.90
30037;DHT22;36325;51.512;-0.382;2023-11-19T15:08:00;14.40;99.90
30037;DHT22;36325;51.512;-0.382;2023-11-19T15:10:31;14.40;99.90
30037;DHT22;36325;51.512;-0.382;2023-11-19T15:13:00;14.30;99.90
30037;DHT22;36325;51.512;-0.382;2023-11-19T15:15:28;12.90;99.90
30037;DHT22;36325;51.512;-0.382;2023-11-19T15:18:01;14.30;99.90
30037;DHT22;36325;51.512;-0.382;2023-11-19T15:20:29;14.20;99.90
30037;DHT22;36325;51.512;-0.382;2023-11-19T15:22:58;14.20;99.90
30037;DHT22;36325;51.512;-0.382;2023-11-19T15:25:26;14.10;99.90
30037;DHT22;36325;51.512;-0.382;2023-11-19T15:28:03;14.00;99.90
30037;DHT22;36325;51.512;-0.382;2023-11-19T15:30:33;14.10;99.90
30037;DHT22;36325;51.512;-0.382;2023-11-19T15:33:06;14.10;99.90
30037;DHT22;36325;51.512;-0.382;2023-11-19T15:35:37;14.10;99.90
30037;DHT22;36325;51.512;-0.382;2023-11-19T15:38:06;14.10;99.90
30037;DHT22;36325;51.512;-0.382;2023-11-19T15:40:36;14.10;99.90
30037;DHT22;36325;51.512;-0.382;2023-11-19T15:43:06;14.10;99.90
30037;DHT22;36325;51.512;-0.382;2023-11-19T15:45:34;14.20;99.90
30037;DHT22;36325;51.512;-0.382;2023-11-19T15:48:05;14.20;99.90
30037;DHT22;36325;51.512;-0.382;2023-11-19T15:50:33;14.20;99.90
30037;DHT22;36325;51.512;-0.382;2023-11-19T15:53:01;14.20;99.90
30037;DHT22;36325;51.512;-0.382;2023-11-19T15:55:29;14.20;99.90
30037;DHT22;36325;51.512;-0.382;2023-11-19T15:57:59;14.20;99.90
30037;DHT22;36325;51.512;-0.382;2023-11-19T16:00:29;14.20;99.90
30037;DHT22;36325;51.512;-0.382;2023-11-19T16:03:13;14.10;99.90
30037;DHT22;36325;51.512;-0.382;2023-11-19T16:05:42;14.00;99.90
30037;DHT22;36325;51.512;-0.382;2023-11-19T16:11:05;13.90;99.90
30037;DHT22;36325;51.512;-0.382;2023-11-19T16:13:36;13.70;99.90
30037;DHT22;36325;51.512;-0.382;2023-11-19T16:16:05;13.60;99.90
30037;DHT22;36325;51.512;-0.382;2023-11-19T16:18:37;13.50;99.90
30037;DHT22;36325;51.512;-0.382;2023-11-19T16:21:06;13.30;99.90
30037;DHT22;36325;51.512;-0.382;2023-11-19T16:23:34;13.20;99.90
30037;DHT22;36325;51.512;-0.382;2023-11-19T16:26:12;13.10;99.90
30037;DHT22;36325;51.512;-0.382;2023-11-19T16:28:42;13.10;99.90
30037;DHT22;36325;51.512;-0.382;2023-11-19T16:31:13;13.30;99.90